Página principal
METAR-TAF:

METAR-TAF

Aeroportos :

Aeroporto Internacional Julius Nyerere

Dar es Salaam, Tanzânia

latitude: 06-52S, longitude: 039-12E, altura: 55 m

Observação actual do tempo

O boletim foi feito há 1 hora e 4 minutos, às 11:00 UTC
Vento 13 kt de sul
Temperatura 31°C
Humidade 52%
Pressão 1013 hPa
Visibilidade 10 km ou mais
Poucas nuvensa uma altura de 3300 ft
Nuvens fragmentadasa uma altura de 8000 ft

METAR: HTDA 201100Z 19013KT 9999 FEW033 BKN080 31/20 Q1013 NOSIG

Hora: 15:04 (12:04 UTC)

Previsão

O boletim foi feito há 1 hora e 4 minutos, às 11:00 UTC
Previsão válida de 20 às 12 UTC a 21 às 18 UTC
Vento 15 kt de sul
Visibilidade 10 km ou mais
Nuvens dispersasa uma altura de 2900 ft
Tornando-se
de 20 às 19 UTC a 20 às 22 UTC
Vento 5 kt de su-sudoeste

TAF: HTDA 201100Z 2012/2118 18015KT 9999 SCT029 BECMG 2019/2022 21005KT

Observações e previsões do tempo de mais de 4000 aeroportos (mensagens METAR e TAF).

As estações disponíveis são os pontos amarelos e vermelhos sobre o mapa.

Mova o rato sobre o mapa para ver o nome da estação.

Depois clique no ponto para visualizar as observações e previsões meteorológicas.

Para alterar o mapa : clique nos botões verdes com uma cruz preta para aumentar o zoom; no botão verde com uma pitada de zoom; ou nas setas verdes para mapas adjacentes.


METAR-TAF: